KVLD/VLD METAR and TAF weather

Enter ICAO airport designator
Station Type Date Time Source
KVLD METAR 2021/07/24 20:53 UTC NOAA

KVLD 242053Z AUTO 08008KT 10SM FEW050 33/21 A3001 RMK AO2 SLP169 T03280211 57014


Station Type Date Time Source
KVLD Decoded METAR 2021/07/24 20:53 UTC NOAA

VALDOSTA REGIONAL AIRPORT, GA, United States (KVLD) 30-47N 083-16W
Jul 24, 2021 - 04:53 PM EDT / 2021.07.24 2053 UTC
Wind: from the E (080 degrees) at 9 MPH (8 KT):0
Visibility: 10 mile(s):0
Sky conditions: mostly clear
Temperature: 91.0 F (32.8 C)
Heat index: 96.4 F (35.8 C):1
Dew Point: 70.0 F (21.1 C)
Relative Humidity: 50%
Pressure (altimeter): 30.01 in. Hg (1016 hPa)
Pressure tendency: 0.04 inches (1.4 hPa) lower than three hours ago
ob: KVLD 242053Z AUTO 08008KT 10SM FEW050 33/21 A3001 RMK AO2 SLP169 T03280211 57014
cycle: 21

Station Type Date Time Source
KVLD TAF 2021/07/24 18:24 UTC NOAA

TAF KVLD 241721Z 2418/2518 07005KT P6SM SCT035

Example: see airport list